Time;durP1;ratioP1;P1;durP2;ratioP2;P2;SDS_P1;SDS_P2;PMS_P1;PMS_P2;Temp;Humidity;BMP_temperature;BMP_pressure;BME280_temperature;BME280_humidity;BME280_pressure;Samples;Min_cycle;Max_cycle;Signal;HPM_P1;HPM_P2
2022/10/09 08:01:33;;;;;;;14.02;10.88;;;;;;;9.07;86.74;102228.50;5320988;27;20399;-72
2022/10/09 08:04:04;;;;;;;14.00;10.18;;;;;;;9.19;87.12;102227.63;5296911;28;20067;-72
2022/10/09 08:06:36;;;;;;;9.43;8.52;;;;;;;9.25;87.18;102218.31;5291806;28;20059;-72
2022/10/09 08:09:08;;;;;;;13.85;9.63;;;;;;;9.29;86.82;102212.06;5299508;28;20027;-72
2022/10/09 08:11:39;;;;;;;11.35;8.90;;;;;;;9.38;87.34;102215.25;5300427;28;20064;-71
2022/10/09 08:14:12;;;;;;;12.63;9.10;;;;;;;9.47;86.67;102215.72;5295857;28;20510;-72
2022/10/09 08:16:43;;;;;;;16.08;8.70;;;;;;;9.56;86.98;102215.06;5290533;28;20099;-72
2022/10/09 08:19:15;;;;;;;11.65;8.38;;;;;;;9.59;86.30;102205.41;5299629;28;20031;-70
2022/10/09 08:21:49;;;;;;;9.32;8.23;;;;;;;9.65;86.53;102218.25;5299305;28;20044;-71
2022/10/09 08:24:20;;;;;;;11.45;8.77;;;;;;;9.79;86.13;102208.53;5291962;28;20095;-70
2022/10/09 08:26:54;;;;;;;11.75;9.07;;;;;;;9.79;85.58;102205.75;5300042;28;20161;-70
2022/10/09 08:29:25;;;;;;;10.70;8.45;;;;;;;9.85;85.27;102203.06;5293613;28;20043;-70
2022/10/09 08:31:57;;;;;;;9.73;8.23;;;;;;;9.95;84.94;102206.84;5297740;28;20021;-70
2022/10/09 08:34:28;;;;;;;11.63;8.30;;;;;;;10.04;84.14;102192.56;5297535;28;20161;-72
2022/10/09 08:36:59;;;;;;;10.68;8.65;;;;;;;10.10;83.92;102197.06;5295574;28;20499;-72
2022/10/09 08:39:31;;;;;;;11.43;8.05;;;;;;;10.18;83.84;102193.91;5299071;28;20387;-72
2022/10/09 08:42:02;;;;;;;11.32;7.95;;;;;;;10.26;83.54;102196.22;5299081;28;20169;-69
2022/10/09 08:44:45;;;;;;;10.05;8.00;;;;;;;10.30;83.12;102186.31;5299954;28;20020;-70
2022/10/09 08:47:16;;;;;;;14.52;8.38;;;;;;;10.45;83.29;102192.09;5292940;28;20099;-69
2022/10/09 08:50:08;;;;;;;10.88;7.47;;;;;;;10.44;82.39;102190.41;5294646;28;20103;-69
2022/10/09 08:53:01;;;;;;;10.43;7.05;;;;;;;10.57;81.84;102188.38;5299409;28;20024;-69
2022/10/09 08:55:42;;;;;;;15.48;7.65;;;;;;;10.65;81.51;102185.16;5296758;28;20034;-69
2022/10/09 08:58:19;;;;;;;10.55;7.18;;;;;;;10.71;80.02;102186.91;5301073;28;20024;-69
2022/10/09 09:00:54;;;;;;;15.10;7.22;;;;;;;10.79;79.70;102183.66;5298190;28;20032;-71
2022/10/09 09:03:34;;;;;;;11.02;6.43;;;;;;;10.84;79.24;102177.34;5300727;28;20103;-70
2022/10/09 09:06:22;;;;;;;9.15;7.53;;;;;;;10.96;78.92;102174.41;5294798;28;20023;-70
2022/10/09 09:09:04;;;;;;;10.63;7.72;;;;;;;11.08;79.50;102170.41;5294614;28;20479;-71
2022/10/09 09:11:54;;;;;;;10.15;7.60;;;;;;;11.16;79.50;102162.72;5284705;28;20025;-70
2022/10/09 09:14:37;;;;;;;16.42;7.85;;;;;;;11.28;78.35;102164.22;5278653;28;20035;-71
2022/10/09 09:17:22;;;;;;;11.55;7.30;;;;;;;11.38;78.11;102160.72;5285259;28;20056;-70
2022/10/09 09:20:03;;;;;;;7.40;6.00;;;;;;;11.45;76.97;102160.47;5283385;28;20028;-70
2022/10/09 09:22:39;;;;;;;11.35;7.22;;;;;;;11.56;77.22;102167.81;5271577;28;20390;-71
2022/10/09 09:25:20;;;;;;;9.65;7.30;;;;;;;11.63;75.83;102157.34;5283618;28;20029;-70
2022/10/09 09:27:53;;;;;;;10.07;7.40;;;;;;;11.71;75.28;102144.88;5285458;28;20449;-70
2022/10/09 09:30:34;;;;;;;9.65;6.07;;;;;;;11.83;75.17;102150.25;5285229;28;20027;-70
2022/10/09 09:33:30;;;;;;;8.70;7.28;;;;;;;11.93;75.38;102140.06;5284081;28;20146;-69
2022/10/09 09:36:16;;;;;;;11.45;7.20;;;;;;;12.06;74.32;102132.38;5277014;28;20080;-71
2022/10/09 09:38:49;;;;;;;10.27;6.20;;;;;;;12.10;73.57;102128.78;5273105;28;20484;-70
2022/10/09 09:41:23;;;;;;;11.05;6.47;;;;;;;12.25;74.34;102130.00;5282363;28;20036;-73
2022/10/09 09:43:55;;;;;;;7.57;6.50;;;;;;;12.33;72.88;102121.13;5284388;28;20075;-71
2022/10/09 09:46:29;;;;;;;15.15;7.35;;;;;;;12.39;73.37;102117.25;5283589;28;20468;-70
2022/10/09 09:49:00;;;;;;;11.00;6.35;;;;;;;12.51;72.32;102108.69;5284788;28;20427;-70
2022/10/09 09:51:32;;;;;;;8.57;5.63;;;;;;;12.56;71.79;102112.31;5282806;28;20059;-70
2022/10/09 09:54:13;;;;;;;9.50;6.10;;;;;;;12.64;71.08;102110.13;5283138;28;20024;-72
2022/10/09 09:56:50;;;;;;;7.63;5.70;;;;;;;12.70;71.89;102112.63;5269516;28;20036;-72
2022/10/09 09:59:40;;;;;;;8.50;5.90;;;;;;;12.83;71.44;102108.50;5283319;28;20044;-71
2022/10/09 10:02:16;;;;;;;8.95;6.03;;;;;;;12.94;70.67;102093.50;5284338;28;20035;-71
2022/10/09 10:04:59;;;;;;;6.53;4.97;;;;;;;13.08;70.28;102095.75;5290199;28;20036;-71
2022/10/09 10:07:34;;;;;;;10.15;5.30;;;;;;;13.15;69.01;102093.53;5282788;28;20024;-72
2022/10/09 10:10:08;;;;;;;8.88;5.57;;;;;;;13.22;69.15;102094.13;5278692;28;20055;-70
2022/10/09 10:12:42;;;;;;;7.65;5.07;;;;;;;13.30;68.92;102085.22;5278851;28;20067;-71
2022/10/09 10:15:19;;;;;;;7.03;5.05;;;;;;;13.38;67.77;102087.47;5278842;28;20024;-72
2022/10/09 10:18:17;;;;;;;12.63;5.70;;;;;;;13.43;67.64;102081.06;5268530;28;20035;-71
2022/10/09 10:21:01;;;;;;;8.52;5.00;;;;;;;13.47;67.03;102088.59;5274180;28;20036;-72
2022/10/09 10:23:52;;;;;;;7.70;4.25;;;;;;;13.48;65.56;102073.53;5281696;28;20074;-71
2022/10/09 10:26:45;;;;;;;9.57;5.70;;;;;;;13.52;66.96;102070.16;5283421;28;20052;-72
2022/10/09 10:29:22;;;;;;;7.68;4.70;;;;;;;13.67;66.10;102075.72;5288151;28;20066;-73
2022/10/09 10:32:12;;;;;;;6.43;4.50;;;;;;;13.66;64.66;102060.13;5273971;28;20498;-73
2022/10/09 10:34:46;;;;;;;8.02;4.85;;;;;;;13.69;63.35;102068.75;5281382;28;20025;-71
2022/10/09 10:37:39;;;;;;;5.82;3.10;;;;;;;13.78;63.30;102057.88;5281605;28;20032;-74
2022/10/09 10:40:25;;;;;;;7.53;3.42;;;;;;;13.80;61.88;102052.84;5281889;28;20032;-72
2022/10/09 10:43:08;;;;;;;8.10;3.88;;;;;;;14.02;63.05;102041.34;5274771;28;20028;-72
2022/10/09 10:45:43;;;;;;;11.38;5.53;;;;;;;14.03;62.54;102047.75;5282541;28;20028;-73
2022/10/09 10:48:23;;;;;;;6.07;3.95;;;;;;;14.13;62.86;102042.16;5281348;28;20028;-71
2022/10/09 10:50:58;;;;;;;7.95;3.55;;;;;;;14.14;60.37;102039.09;5281050;28;20048;-71
2022/10/09 10:53:44;;;;;;;6.60;3.78;;;;;;;14.27;62.01;102037.63;5282507;28;20032;-76
2022/10/09 10:56:39;;;;;;;7.00;4.63;;;;;;;14.27;61.83;102032.06;5291543;28;20036;-69
2022/10/09 10:59:25;;;;;;;9.60;5.53;;;;;;;14.35;61.87;102023.09;5276500;28;20098;-71
2022/10/09 11:02:31;;;;;;;7.25;3.92;;;;;;;14.43;62.19;102023.59;5279805;28;20078;-78
2022/10/09 11:05:31;;;;;;;8.45;4.28;;;;;;;14.53;61.80;102026.38;5279333;28;20050;-70
2022/10/09 11:08:10;;;;;;;10.77;4.20;;;;;;;14.54;61.46;102014.91;5282925;28;20115;-70
2022/10/09 11:11:09;;;;;;;5.45;3.88;;;;;;;14.64;61.48;102015.97;5280790;28;20036;-71
2022/10/09 11:13:55;;;;;;;8.35;4.35;;;;;;;14.77;61.85;102013.34;5279722;28;20029;-70
2022/10/09 11:17:00;;;;;;;11.15;4.57;;;;;;;14.83;61.38;102008.59;5275482;28;20025;-70
2022/10/09 11:20:08;;;;;;;8.13;4.07;;;;;;;14.82;60.44;102008.88;5285744;28;20491;-70
2022/10/09 11:22:56;;;;;;;5.43;3.47;;;;;;;14.86;60.22;102001.59;5280094;28;20064;-71
2022/10/09 11:25:35;;;;;;;7.10;3.95;;;;;;;14.90;59.86;101997.91;5282862;28;20123;-71
2022/10/09 11:28:14;;;;;;;5.28;3.47;;;;;;;15.03;60.23;101992.78;5284172;28;20495;-71
2022/10/09 11:31:01;;;;;;;8.90;3.78;;;;;;;15.07;59.79;101989.13;5284545;28;20028;-70
2022/10/09 11:33:37;;;;;;;5.00;4.22;;;;;;;15.13;60.14;101981.53;5283996;28;20035;-69
2022/10/09 11:36:21;;;;;;;8.85;4.80;;;;;;;15.22;60.40;101986.19;5288765;28;20039;-70
2022/10/09 11:39:05;;;;;;;7.97;3.88;;;;;;;15.26;60.15;101982.81;5274936;28;20458;-71
2022/10/09 11:41:37;;;;;;;8.68;4.57;;;;;;;15.36;60.01;101971.53;5282592;28;20037;-70
2022/10/09 11:44:34;;;;;;;6.85;3.72;;;;;;;15.43;59.78;101974.81;5281196;28;20028;-69
2022/10/09 11:47:53;;;;;;;8.38;4.88;;;;;;;15.52;59.38;101973.06;5275186;28;20047;-71
2022/10/09 11:50:47;;;;;;;6.03;3.92;;;;;;;15.64;58.38;101961.44;5274590;28;20044;-70
2022/10/09 11:53:22;;;;;;;7.75;3.33;;;;;;;15.71;58.48;101958.34;5274664;28;20454;-71
2022/10/09 11:56:05;;;;;;;6.18;3.58;;;;;;;15.76;57.88;101952.69;5271974;28;20029;-70
2022/10/09 11:58:37;;;;;;;6.85;3.10;;;;;;;15.68;56.76;101942.13;5271008;28;20090;-70
2022/10/09 12:01:46;;;;;;;11.77;3.75;;;;;;;15.89;56.99;101946.38;5280279;28;20056;-71
2022/10/09 12:04:27;;;;;;;9.82;3.75;;;;;;;15.80;56.78;101934.19;5272560;28;20596;-70
2022/10/09 12:07:01;;;;;;;7.15;3.55;;;;;;;15.86;56.75;101928.22;5273783;28;20483;-70
2022/10/09 12:09:42;;;;;;;6.53;3.33;;;;;;;16.01;56.33;101916.00;5282242;28;20040;-70
2022/10/09 12:12:16;;;;;;;7.97;4.05;;;;;;;16.11;55.38;101915.03;5270441;28;20028;-70
2022/10/09 12:14:49;;;;;;;5.28;2.92;;;;;;;16.17;54.95;101904.59;5280570;28;20111;-71
2022/10/09 12:17:23;;;;;;;4.93;2.90;;;;;;;16.27;55.35;101898.84;5266985;28;20033;-70
2022/10/09 12:20:03;;;;;;;13.05;4.20;;;;;;;16.36;55.61;101891.44;5286429;28;20123;-71
2022/10/09 12:22:48;;;;;;;9.15;3.08;;;;;;;16.42;55.38;101892.19;5273414;28;20480;-70
2022/10/09 12:25:25;;;;;;;6.75;3.13;;;;;;;16.45;54.25;101889.59;5281709;28;20412;-70
2022/10/09 12:27:58;;;;;;;9.98;4.07;;;;;;;16.57;54.18;101879.91;5272572;28;20025;-70
2022/10/09 12:30:40;;;;;;;5.07;3.05;;;;;;;16.56;53.56;101875.44;5278014;28;20107;-71
2022/10/09 12:33:37;;;;;;;6.38;2.83;;;;;;;16.68;52.86;101867.38;5276660;28;20042;-69
2022/10/09 12:36:13;;;;;;;;;;;;;;;16.83;52.31;101855.94;5274941;28;20043;-70
2022/10/09 12:38:44;;;;;;;;;;;;;;;16.90;52.33;101852.75;5282072;28;19970;-69
2022/10/09 12:41:23;;;;;;;4.13;2.50;;;;;;;16.89;51.57;101846.28;5280432;28;19916;-69
2022/10/09 12:43:56;;;;;;;5.30;3.38;;;;;;;16.90;51.39;101852.75;5280484;28;20119;-69
2022/10/09 12:46:34;;;;;;;8.07;3.35;;;;;;;16.95;50.16;101849.84;5273614;28;20038;-69
2022/10/09 12:49:20;;;;;;;4.72;3.10;;;;;;;17.07;51.62;101838.13;5283508;28;20033;-69
2022/10/09 12:51:55;;;;;;;5.50;2.72;;;;;;;17.11;50.19;101833.56;5285425;28;20028;-70
2022/10/09 12:54:29;;;;;;;5.73;2.80;;;;;;;17.15;49.84;101829.00;5277032;28;20043;-71
2022/10/09 12:57:01;;;;;;;4.85;2.47;;;;;;;17.15;48.24;101823.38;5284439;28;20028;-69
2022/10/09 12:59:32;;;;;;;5.85;2.70;;;;;;;17.19;47.29;101821.63;5283555;28;20483;-69
2022/10/09 13:02:04;;;;;;;4.40;2.88;;;;;;;17.29;47.36;101818.63;5284629;28;20024;-69
2022/10/09 13:04:35;;;;;;;7.85;2.67;;;;;;;17.32;47.04;101806.78;5280996;28;20507;-69
2022/10/09 13:07:19;;;;;;;3.10;2.05;;;;;;;17.36;47.50;101810.63;5284646;28;20105;-69
2022/10/09 13:09:58;;;;;;;6.70;2.45;;;;;;;17.43;47.02;101801.78;5284549;28;20032;-71
2022/10/09 13:12:30;;;;;;;5.40;2.10;;;;;;;17.34;45.54;101798.91;5282701;28;20405;-70
2022/10/09 13:15:06;;;;;;;7.45;3.13;;;;;;;17.43;45.93;101793.38;5281789;28;20099;-68
2022/10/09 13:17:40;;;;;;;4.15;3.10;;;;;;;17.38;46.47;101794.34;5275903;28;20048;-74
2022/10/09 13:20:11;;;;;;;10.80;2.38;;;;;;;17.41;45.90;101797.63;5278142;28;20384;-68
2022/10/09 13:22:52;;;;;;;4.93;1.87;;;;;;;17.41;45.93;101789.22;5268984;28;20029;-68
2022/10/09 13:25:26;;;;;;;3.78;1.90;;;;;;;17.31;45.71;101782.72;5283348;28;20294;-68
2022/10/09 13:27:58;;;;;;;3.28;2.20;;;;;;;17.39;46.33;101775.53;5282744;28;20036;-68
2022/10/09 13:30:29;;;;;;;2.88;2.00;;;;;;;17.30;45.96;101775.41;5291415;28;20379;-70
2022/10/09 13:33:01;;;;;;;4.05;1.63;;;;;;;17.36;46.02;101770.56;5284573;28;20108;-69
2022/10/09 13:35:32;;;;;;;7.38;2.50;;;;;;;17.37;49.82;101763.78;5275714;28;20083;-69
2022/10/09 13:38:03;;;;;;;5.30;2.00;;;;;;;17.29;44.98;101759.75;5272379;28;20051;-69
2022/10/09 13:40:37;;;;;;;3.15;1.60;;;;;;;17.24;45.06;101759.88;5284454;28;20024;-69
2022/10/09 13:43:21;;;;;;;3.30;1.80;;;;;;;17.19;45.34;101751.56;5284147;28;20093;-68
2022/10/09 13:45:53;;;;;;;4.03;1.95;;;;;;;17.14;45.77;101749.69;5282083;28;20426;-67
2022/10/09 13:48:24;;;;;;;5.03;2.00;;;;;;;17.14;45.98;101743.25;5282565;28;20032;-69
2022/10/09 13:50:58;;;;;;;6.38;2.25;;;;;;;17.12;45.61;101740.75;5284040;28;20041;-69
2022/10/09 13:53:29;;;;;;;4.13;1.83;;;;;;;17.05;45.65;101734.78;5283258;28;20037;-68
2022/10/09 13:56:00;;;;;;;2.75;2.00;;;;;;;17.08;45.10;101734.13;5283610;28;20082;-68
2022/10/09 13:58:32;;;;;;;4.35;1.80;;;;;;;17.02;45.16;101721.34;5282837;28;20024;-69
2022/10/09 14:01:03;;;;;;;5.63;1.75;;;;;;;17.03;45.86;101727.81;5282317;28;20049;-69
2022/10/09 14:03:34;;;;;;;4.65;2.45;;;;;;;17.11;45.71;101718.66;5283831;28;20398;-72
2022/10/09 14:06:06;;;;;;;3.28;1.90;;;;;;;17.07;46.11;101710.03;5283227;28;20021;-74
2022/10/09 14:08:37;;;;;;;5.47;2.47;;;;;;;17.10;46.56;101719.78;5280223;28;20154;-71
2022/10/09 14:11:09;;;;;;;6.45;2.20;;;;;;;17.11;46.23;101704.66;5281485;28;20020;-69
2022/10/09 14:13:40;;;;;;;5.05;2.58;;;;;;;17.08;45.50;101694.09;5279714;28;20123;-73
2022/10/09 14:16:11;;;;;;;4.40;1.98;;;;;;;17.11;46.75;101687.84;5283696;28;20490;-73
2022/10/09 14:18:43;;;;;;;6.38;2.47;;;;;;;17.05;46.82;101684.31;5283624;28;20052;-77
2022/10/09 14:21:14;;;;;;;5.25;2.10;;;;;;;17.13;46.86;101679.97;5283114;28;20180;-77
2022/10/09 14:23:45;;;;;;;6.55;2.50;;;;;;;17.11;47.36;101676.63;5281703;28;20025;-75
2022/10/09 14:26:23;;;;;;;6.03;2.42;;;;;;;17.11;47.28;101679.44;5273808;28;20033;-71
2022/10/09 14:28:58;;;;;;;3.47;2.28;;;;;;;17.07;47.25;101676.41;5275378;28;20024;-71
2022/10/09 14:31:30;;;;;;;5.15;2.10;;;;;;;17.07;47.79;101672.78;5273144;28;20044;-71
2022/10/09 14:34:01;;;;;;;3.65;1.90;;;;;;;17.16;47.24;101662.50;5279983;28;20371;-70
2022/10/09 14:36:32;;;;;;;2.88;1.75;;;;;;;17.08;47.17;101664.06;5281327;28;20135;-69
2022/10/09 14:39:04;;;;;;;4.90;2.35;;;;;;;17.11;47.74;101665.41;5279876;28;20031;-69
2022/10/09 14:41:35;;;;;;;4.90;2.35;;;;;;;17.04;47.65;101660.22;5273489;28;20605;-68
2022/10/09 14:44:08;;;;;;;4.53;2.15;;;;;;;17.06;47.68;101657.13;5272527;28;20016;-69
2022/10/09 14:46:39;;;;;;;3.00;1.98;;;;;;;17.20;47.62;101651.47;5269918;28;20456;-69
2022/10/09 14:49:11;;;;;;;4.45;2.53;;;;;;;17.14;47.11;101653.56;5274854;28;20036;-69
2022/10/09 14:51:42;;;;;;;4.00;2.10;;;;;;;17.14;47.40;101646.00;5280251;28;20039;-70
2022/10/09 14:54:14;;;;;;;5.88;2.53;;;;;;;17.17;48.27;101648.16;5278354;28;20149;-69
2022/10/09 14:56:45;;;;;;;4.10;2.20;;;;;;;17.19;48.73;101647.84;5280733;28;20036;-69
2022/10/09 14:59:16;;;;;;;5.25;2.45;;;;;;;17.16;49.40;101640.09;5281109;28;20021;-70
2022/10/09 15:01:48;;;;;;;7.40;3.00;;;;;;;17.17;49.94;101631.34;5278701;28;20032;-69
2022/10/09 15:04:19;;;;;;;6.40;2.65;;;;;;;17.10;50.54;101635.72;5280096;28;20029;-71
2022/10/09 15:06:50;;;;;;;8.15;2.22;;;;;;;17.17;51.00;101622.94;5278586;28;20036;-69
2022/10/09 15:09:22;;;;;;;3.13;2.30;;;;;;;17.15;50.83;101622.44;5275504;28;20105;-73
2022/10/09 15:11:53;;;;;;;6.53;3.13;;;;;;;17.06;51.51;101618.72;5272307;28;20108;-73
2022/10/09 15:14:27;;;;;;;4.65;2.30;;;;;;;17.11;52.65;101612.19;5278882;28;20032;-74
2022/10/09 15:16:59;;;;;;;4.28;2.53;;;;;;;17.10;52.31;101618.91;5281531;28;20043;-74
2022/10/09 15:19:30;;;;;;;5.88;2.72;;;;;;;17.10;53.03;101602.94;5274684;28;20020;-72
2022/10/09 15:22:02;;;;;;;3.85;2.05;;;;;;;17.10;52.99;101607.69;5281933;28;20020;-73
2022/10/09 15:24:37;;;;;;;4.90;2.60;;;;;;;16.99;53.22;101603.47;5281943;28;20115;-72
2022/10/09 15:27:08;;;;;;;7.70;3.00;;;;;;;16.89;52.72;101594.16;5290700;28;20031;-73
2022/10/09 15:29:40;;;;;;;5.13;2.10;;;;;;;16.90;52.39;101584.63;5272156;28;20040;-73
2022/10/09 15:32:11;;;;;;;4.18;2.92;;;;;;;16.78;52.07;101584.31;5273857;28;20016;-74
2022/10/09 15:34:42;;;;;;;3.17;2.00;;;;;;;16.81;51.80;101589.28;5276767;28;20078;-74
2022/10/09 15:37:14;;;;;;;5.63;3.30;;;;;;;16.80;52.51;101581.22;5274544;28;20036;-74
2022/10/09 15:39:45;;;;;;;5.65;2.25;;;;;;;16.79;52.67;101585.16;5280850;28;20513;-74
2022/10/09 15:42:16;;;;;;;6.75;3.10;;;;;;;16.72;53.15;101582.75;5274295;28;20059;-74
2022/10/09 15:44:47;;;;;;;4.20;2.42;;;;;;;16.67;53.64;101577.28;5279291;28;20029;-74
2022/10/09 15:47:19;;;;;;;5.57;2.60;;;;;;;16.71;53.67;101567.09;5282447;28;20123;-74
2022/10/09 15:49:50;;;;;;;5.30;3.08;;;;;;;16.63;53.69;101565.84;5280660;28;20033;-74
2022/10/09 15:52:21;;;;;;;5.65;2.50;;;;;;;16.60;53.55;101565.66;5271765;28;20031;-74
2022/10/09 15:54:52;;;;;;;7.40;3.90;;;;;;;16.60;53.65;101563.69;5273314;28;20327;-72
2022/10/09 15:57:24;;;;;;;6.57;2.92;;;;;;;16.58;53.75;101559.53;5281722;28;20429;-73
2022/10/09 15:59:55;;;;;;;9.85;2.80;;;;;;;16.53;54.38;101552.88;5279954;28;20044;-73
2022/10/09 16:02:26;;;;;;;5.68;2.38;;;;;;;16.48;53.20;101553.00;5281747;28;20025;-74
2022/10/09 16:04:58;;;;;;;3.83;2.30;;;;;;;16.46;52.63;101543.25;5289518;28;20097;-74
2022/10/09 16:07:29;;;;;;;4.50;2.13;;;;;;;16.45;52.94;101534.03;5282359;28;20028;-75
2022/10/09 16:10:00;;;;;;;4.78;2.42;;;;;;;16.32;52.58;101529.28;5280694;28;20072;-75
2022/10/09 16:12:32;;;;;;;8.57;2.40;;;;;;;16.36;52.90;101530.34;5279684;28;20082;-74
2022/10/09 16:15:04;;;;;;;5.78;2.38;;;;;;;16.30;53.42;101531.56;5291631;28;20464;-75
2022/10/09 16:17:38;;;;;;;5.18;2.20;;;;;;;16.21;53.16;101528.69;5288563;28;20486;-74
2022/10/09 16:20:09;;;;;;;4.57;2.20;;;;;;;16.22;54.00;101521.09;5280712;28;20033;-78
2022/10/09 16:22:40;;;;;;;5.57;2.75;;;;;;;16.16;54.84;101527.94;5285382;28;20021;-74
2022/10/09 16:25:12;;;;;;;3.78;2.45;;;;;;;16.14;53.44;101524.63;5278561;28;20063;-75
2022/10/09 16:27:46;;;;;;;7.00;2.33;;;;;;;16.06;53.04;101520.59;5275279;28;20143;-76
2022/10/09 16:30:20;;;;;;;4.68;2.13;;;;;;;16.05;52.82;101521.72;5284062;28;20404;-75
2022/10/09 16:32:52;;;;;;;4.60;2.40;;;;;;;16.05;53.52;101522.56;5274973;28;20029;-75
2022/10/09 16:35:24;;;;;;;3.85;2.28;;;;;;;15.97;53.44;101514.88;5284109;28;20078;-76
2022/10/09 16:37:55;;;;;;;4.00;2.35;;;;;;;15.95;54.30;101521.91;5286069;28;20029;-75
2022/10/09 16:40:27;;;;;;;6.82;2.80;;;;;;;15.85;53.64;101506.19;5285339;28;20375;-75
2022/10/09 16:42:58;;;;;;;10.15;2.72;;;;;;;15.84;54.11;101510.09;5285978;28;20090;-75
2022/10/09 16:45:30;;;;;;;4.72;2.42;;;;;;;15.74;54.63;101513.09;5279418;28;20029;-75
2022/10/09 16:48:01;;;;;;;6.93;2.33;;;;;;;15.79;54.90;101507.41;5285103;28;20368;-77
2022/10/09 16:50:39;;;;;;;4.82;2.45;;;;;;;15.74;54.94;101510.28;5285649;28;20090;-75
2022/10/09 16:53:10;;;;;;;2.38;2.17;;;;;;;15.73;54.81;101503.06;5277656;28;20020;-75
2022/10/09 16:55:42;;;;;;;5.72;2.60;;;;;;;15.69;54.93;101515.94;5284873;28;20111;-75
2022/10/09 16:58:13;;;;;;;4.35;2.75;;;;;;;15.60;54.65;101504.66;5286087;28;20078;-75
2022/10/09 17:00:44;;;;;;;4.40;2.17;;;;;;;15.56;54.80;101507.22;5282661;28;20053;-75
2022/10/09 17:03:19;;;;;;;4.28;2.10;;;;;;;15.52;54.69;101505.34;5284754;28;20035;-75
2022/10/09 17:05:50;;;;;;;4.10;2.20;;;;;;;15.49;55.09;101509.59;5285289;28;20033;-75
2022/10/09 17:08:21;;;;;;;9.50;2.78;;;;;;;15.43;55.41;101511.63;5334747;22;20063;-74
2022/10/09 17:10:53;;;;;;;4.45;2.33;;;;;;;15.39;55.25;101510.63;5243857;28;20579;-75
2022/10/09 17:13:30;;;;;;;3.85;2.25;;;;;;;15.43;55.09;101505.22;5243152;28;20022;-75
2022/10/09 17:16:07;;;;;;;4.63;2.17;;;;;;;15.33;55.86;101508.19;5243085;28;20351;-75
2022/10/09 17:18:38;;;;;;;3.60;2.10;;;;;;;15.23;55.69;101493.25;5243269;28;20113;-75
2022/10/09 17:21:11;;;;;;;5.00;3.92;;;;;;;15.25;55.93;101503.31;5243298;28;20480;-76
2022/10/09 17:23:43;;;;;;;4.35;2.15;;;;;;;15.16;56.16;101501.22;5235128;28;20021;-75
2022/10/09 17:26:18;;;;;;;6.47;3.15;;;;;;;15.20;56.06;101502.25;5242912;28;20038;-76
2022/10/09 17:28:50;;;;;;;6.47;3.47;;;;;;;15.19;55.88;101505.38;5311104;22;20041;-76
2022/10/09 17:31:23;;;;;;;3.15;2.53;;;;;;;15.07;56.42;101503.03;5263315;28;20051;-75
